Newhall, IA (52315)

5:50 PM CST on March 04, 2015 (GMT -0600)
KIASHELL3 | Change Station
CLOSE
Current Station
Personal Weather Station
Location: Shellsburg, IA
Elevation: 869 ft
Nearby Weather Stations
Active Advisory: Special Statement

Elev 869 ft 42.09 °N, 91.92 °W | Updated 6 minutes ago

Clear
Clear
15.3 °F
Feels Like 15 °F
N
2.2
Wind Variable Wind from WNW

Today
High -- | Low -- °F
--% Chance of Precip.
Yesterday
High -- | Low -- °F
Precip. -- in
6:38 AM 6:01 PM
Waxing Gibbous, 99% visible
Pressure 30.30 in
Visibility 10.0 miles
Clouds Clear
Windchill 15 °F
Dew Point 9 °F
Humidity 75%
Rainfall 0.37 in
Snow Depth Not available.
UV 1 out of 12
Pollen .20 out of 12
Air Quality Not available.
Flu Activity Not available.
METAR KCID 042252Z 34010KT 10SM CLR M09/M16 A3025 RMK AO2 SLP261 T10941156

More Conditions Fewer Conditions

Pressure 30.30 in
Visibility 10.0 miles
Clouds Clear
Windchill 15 °F
Dew Point 9 °F
Humidity 75%
Rainfall 0.37 in
Snow Depth Not available.
UV 1 out of 12
Pollen .20 out of 12
Air Quality Not available.
Flu Activity Not available.
METAR KCID 042252Z 34010KT 10SM CLR M09/M16 A3025 RMK AO2 SLP261 T10941156

More Conditions Fewer Conditions

10-Day Weather Forecast

Almanac

Astronomy

Mar. 04, 2015 Rise Set
Actual Time
Civil Twilight
Nautical Twilight
Astronomical Twilight
Moon
Length of Visible Light
Length of Day
Tomorrow will be .
, % of the Moon is Illuminated

Today's Extremes

State Highs State Lows

Community

WunderPhotos

Upload Photos

1,802,605 photos uploaded!

WunderBlogs® & News

Nearby

Air Quality

  Air Quality AQ Index Pollutant
Not available.

Snow Depth

Station Depth Elevation

Earthquake Activity

City Distance Mag. Time & Date
Minimum magnitude displayed is 2.5.

Coastal Water Temperatures

Place Temperature

Nearby Weather Stations

Special Statement
Statement as of 3:20 PM CST on March 04, 2015

... Very cold temperatures late tonight into early Thursday morning...

Another Arctic air mass will settle over the area tonight into
Thursday. Low temperatures are expected to drop to 5 to 10 below
zero. Northwest winds of 5 to 10 mph will combine with the cold to
produce wind chills of 15 to 25 below zero.

Wind chills of 20 below zero or colder can produce frostbite
within 30 minutes. Individuals going outside late tonight and
early Thursday morning should dress appropriately.


320 PM CST Wed Mar 4 2015

... Very cold temperatures late tonight into early Thursday morning...

Another Arctic air mass will settle over the area tonight into
Thursday. Low temperatures are expected to drop to 5 to 10 below
zero. Northwest winds of 5 to 10 mph will combine with the cold to
produce wind chills of 15 to 25 below zero.

Wind chills of 20 below zero or colder can produce frostbite
within 30 minutes. Individuals going outside late tonight and
early Thursday morning should dress appropriately.